Terminal Aerodrome Forecast
Issued by NWS Goodland, KS

Home | Current Version | Previous Version | Text Only | Print | Product List | Glossary On
Versions: 1 2 3 4 5 6 7 8 9 10 11 12 13 14 15 16 17 18 19 20 21 22 23 24
000
FTUS43 KGLD 151733
TAFGLD
TAF
KGLD 151733Z 1518/1618 04012KT P6SM OVC012
     FM152100 VRB06KT P6SM SCT025
     FM160300 16008KT P6SM SCT020
      TEMPO 1604/1607 BKN015
     FM160700 18010KT 6SM BR OVC015
     FM161000 19012KT 3SM BR OVC006
      TEMPO 1611/1615 1/2SM FG=

USA.gov is the U.S. government's official web portal to all federal, state and local government web resources and services.